createdAt,value
2022-12-19T00:01:57.785Z,79.02
2022-12-19T00:06:59.959Z,75.10
2022-12-19T00:12:01.691Z,74.85
2022-12-19T00:17:03.346Z,74.97
2022-12-19T00:22:10.894Z,77.82
2022-12-19T00:27:12.902Z,75.83
2022-12-19T00:32:14.586Z,78.56
2022-12-19T00:37:18.250Z,74.02
2022-12-19T00:42:19.965Z,73.61
2022-12-19T00:47:23.652Z,73.41
2022-12-19T00:52:25.353Z,73.18
2022-12-19T00:57:27.338Z,72.75
2022-12-19T01:02:29.135Z,71.62
2022-12-19T01:07:30.849Z,73.35
2022-12-19T01:12:47.730Z,72.95
2022-12-19T01:17:49.841Z,72.14
2022-12-19T01:22:53.294Z,72.28
2022-12-19T01:27:55.797Z,72.63
2022-12-19T01:32:58.686Z,73.16
2022-12-19T01:38:08.478Z,72.41
2022-12-19T01:43:14.843Z,72.04
2022-12-19T01:48:22.482Z,71.81
2022-12-19T01:53:28.943Z,70.87
2022-12-19T01:58:31.017Z,72.10
2022-12-19T02:03:35.550Z,72.12
2022-12-19T02:08:37.635Z,71.54
2022-12-19T02:13:40.585Z,71.43
2022-12-19T02:19:30.405Z,71.84
2022-12-19T02:24:50.829Z,72.36
2022-12-19T02:30:10.513Z,72.85
2022-12-19T02:35:40.416Z,72.63
2022-12-19T02:40:51.882Z,73.15
2022-12-19T02:46:00.933Z,72.58
2022-12-19T02:51:04.693Z,73.56
2022-12-19T02:56:22.827Z,75.31
2022-12-19T03:01:31.038Z,75.98
2022-12-19T03:06:48.456Z,76.15
2022-12-19T03:12:00.528Z,77.18
2022-12-19T03:17:06.107Z,76.57
2022-12-19T03:22:08.522Z,75.96
2022-12-19T03:27:22.788Z,75.92
2022-12-19T03:32:25.240Z,76.07
2022-12-19T03:37:31.991Z,74.47
2022-12-19T03:42:54.243Z,75.38
2022-12-19T03:48:00.915Z,74.82
2022-12-19T03:53:23.979Z,76.41
2022-12-19T03:58:33.976Z,74.55
2022-12-19T04:03:36.183Z,75.86
2022-12-19T04:08:38.532Z,76.02
2022-12-19T04:13:47.575Z,75.81
2022-12-19T04:18:56.450Z,75.09
2022-12-19T04:24:04.610Z,75.55
2022-12-19T04:29:08.073Z,75.95
2022-12-19T04:34:09.844Z,75.70
2022-12-19T04:39:11.639Z,75.61
2022-12-19T04:44:13.312Z,75.23
2022-12-19T04:49:14.957Z,75.29
2022-12-19T04:54:16.842Z,76.02
2022-12-19T04:59:18.609Z,76.37
2022-12-19T05:04:20.419Z,75.84
2022-12-19T05:09:22.177Z,76.03
2022-12-19T05:14:24.282Z,77.41
2022-12-19T05:19:25.993Z,78.09
2022-12-19T05:24:27.662Z,78.08
2022-12-19T05:29:29.367Z,78.07
2022-12-19T05:34:31.753Z,77.92
2022-12-19T05:39:33.492Z,77.09
2022-12-19T05:44:35.292Z,76.04
2022-12-19T05:49:37.003Z,76.29
2022-12-19T05:54:38.657Z,77.38
2022-12-19T05:59:40.309Z,77.29
2022-12-19T06:04:42.009Z,78.35
2022-12-19T06:09:43.697Z,78.28
2022-12-19T06:14:45.345Z,76.17
2022-12-19T06:19:47.003Z,74.78
2022-12-19T06:24:48.685Z,74.54
2022-12-19T06:29:50.416Z,75.20
2022-12-19T06:35:07.422Z,75.05
2022-12-19T06:40:29.749Z,75.93
2022-12-19T06:45:31.673Z,75.76
2022-12-19T06:50:36.381Z,76.70
2022-12-19T06:55:40.071Z,75.47
2022-12-19T07:00:41.863Z,76.46
2022-12-19T07:05:44.098Z,75.19
2022-12-19T07:10:45.877Z,76.10
2022-12-19T07:15:48.252Z,75.62
2022-12-19T07:20:49.984Z,75.34
2022-12-19T07:25:51.764Z,75.79
2022-12-19T07:30:53.528Z,76.13
2022-12-19T07:35:55.425Z,77.09
2022-12-19T07:41:01.237Z,77.21
2022-12-19T07:46:02.962Z,77.42
2022-12-19T07:51:05.450Z,76.05
2022-12-19T07:56:07.685Z,75.33
2022-12-19T08:01:10.126Z,75.90
2022-12-19T08:06:11.995Z,75.04
2022-12-19T08:11:19.136Z,74.49
2022-12-19T08:16:21.666Z,75.36
2022-12-19T08:21:25.011Z,74.46
2022-12-19T08:26:27.759Z,74.01
2022-12-19T08:31:31.800Z,73.57
2022-12-19T08:36:33.944Z,73.69
2022-12-19T08:41:35.745Z,74.51
2022-12-19T08:46:37.563Z,72.43
2022-12-19T08:51:39.326Z,72.17
2022-12-19T08:56:46.837Z,71.82
2022-12-19T09:01:49.041Z,73.00
2022-12-19T09:06:50.950Z,71.21
2022-12-19T09:11:52.695Z,71.25
2022-12-19T09:16:54.440Z,72.59
2022-12-19T09:21:59.547Z,73.27
2022-12-19T09:27:01.229Z,72.79
2022-12-19T09:32:03.103Z,73.34
2022-12-19T09:37:10.438Z,73.89
2022-12-19T09:42:35.121Z,74.61
2022-12-19T09:47:47.080Z,76.82
2022-12-19T09:52:58.304Z,77.23
2022-12-19T09:58:06.178Z,77.22
2022-12-19T10:03:38.803Z,76.06
2022-12-19T10:09:16.650Z,75.38
2022-12-19T10:14:22.694Z,75.73
2022-12-19T10:19:35.058Z,72.90
2022-12-19T10:25:10.459Z,72.33
2022-12-19T10:30:18.983Z,72.34
2022-12-19T10:35:21.167Z,71.74
2022-12-19T10:40:32.117Z,71.84
2022-12-19T10:45:41.018Z,71.61
2022-12-19T10:50:43.754Z,70.68
2022-12-19T10:55:51.802Z,71.40
2022-12-19T11:01:11.901Z,71.02
2022-12-19T11:06:35.385Z,70.16
2022-12-19T11:13:30.998Z,70.13
2022-12-19T11:23:49.428Z,71.50
2022-12-19T11:29:34.562Z,71.64
2022-12-19T11:29:37.373Z,71.26
2022-12-19T11:33:18.408Z,70.54
2022-12-19T11:38:27.877Z,71.70
2022-12-19T11:43:44.584Z,71.79
2022-12-19T11:48:54.025Z,71.65
2022-12-19T11:54:12.303Z,72.85
2022-12-19T11:59:37.846Z,73.82
2022-12-19T12:04:54.618Z,75.14
2022-12-19T12:13:45.659Z,77.38
2022-12-19T12:26:23.051Z,76.44
2022-12-19T12:31:05.106Z,77.20
2022-12-19T12:31:58.266Z,76.60
2022-12-19T12:35:46.912Z,77.04
2022-12-19T12:39:20.742Z,78.82
2022-12-19T12:44:33.175Z,77.73
2022-12-19T12:49:54.432Z,79.96
2022-12-19T12:54:57.835Z,82.82
2022-12-19T13:00:35.961Z,81.83
2022-12-19T13:05:45.836Z,82.58
2022-12-19T13:10:59.285Z,84.24
2022-12-19T13:16:39.429Z,87.12
2022-12-19T13:22:04.114Z,91.23
2022-12-19T13:27:32.359Z,91.79
2022-12-19T13:32:53.964Z,94.27
2022-12-19T13:39:56.400Z,97.27
2022-12-19T13:43:46.424Z,97.60
2022-12-19T13:48:52.537Z,99.39
2022-12-19T13:53:59.557Z,100.00
2022-12-19T13:59:04.341Z,100.00
2022-12-19T14:04:08.019Z,100.00
2022-12-19T14:11:27.765Z,100.00
2022-12-19T14:15:13.152Z,100.00
2022-12-19T14:22:07.202Z,100.00
2022-12-19T14:28:19.379Z,100.00
2022-12-19T14:31:15.257Z,100.00
2022-12-19T14:36:39.128Z,100.00
2022-12-19T14:42:04.336Z,100.00
2022-12-19T14:52:25.144Z,100.00
2022-12-19T14:54:37.231Z,100.00
2022-12-19T14:58:55.865Z,100.00
2022-12-19T15:03:32.139Z,100.00
2022-12-19T15:09:17.743Z,100.00
2022-12-19T15:14:53.929Z,100.00
2022-12-19T15:19:20.344Z,100.00
2022-12-19T15:24:22.104Z,100.00
2022-12-19T15:29:23.909Z,100.00
2022-12-19T15:34:41.940Z,100.00
2022-12-19T15:39:50.333Z,100.00
2022-12-19T15:44:54.047Z,100.00
2022-12-19T15:49:55.744Z,100.00
2022-12-19T15:54:57.505Z,100.00
2022-12-19T16:00:02.725Z,100.00
2022-12-19T16:05:06.737Z,100.00
2022-12-19T16:10:11.952Z,100.00
2022-12-19T16:15:19.931Z,100.00
2022-12-19T16:20:25.334Z,100.00
2022-12-19T16:25:34.141Z,100.00
2022-12-19T16:30:35.854Z,100.00
2022-12-19T16:40:59.263Z,100.00
2022-12-19T16:46:01.997Z,100.00
2022-12-19T16:51:04.030Z,100.00
2022-12-19T16:56:05.861Z,100.00
2022-12-19T17:01:10.596Z,100.00
2022-12-19T17:06:17.878Z,100.00
2022-12-19T17:11:24.940Z,100.00
2022-12-19T17:16:26.726Z,100.00
2022-12-19T17:21:28.494Z,100.00
2022-12-19T17:26:30.340Z,100.00
2022-12-19T17:31:38.079Z,100.00
2022-12-19T17:36:39.992Z,100.00
2022-12-19T17:41:41.686Z,100.00
2022-12-19T17:46:44.372Z,100.00
2022-12-19T17:51:50.466Z,100.00
2022-12-19T17:56:52.605Z,100.00
2022-12-19T18:01:54.524Z,100.00
2022-12-19T18:06:56.380Z,100.00
2022-12-19T18:11:58.206Z,100.00
2022-12-19T18:17:00.373Z,100.00
2022-12-19T18:22:02.276Z,100.00
2022-12-19T18:27:03.987Z,100.00
2022-12-19T18:32:05.761Z,100.00
2022-12-19T18:37:13.374Z,100.00
2022-12-19T18:42:22.021Z,100.00
2022-12-19T18:47:25.507Z,100.00
2022-12-19T18:52:27.219Z,100.00
2022-12-19T18:57:28.908Z,100.00
2022-12-19T19:02:30.924Z,100.00
2022-12-19T19:07:32.843Z,100.00
2022-12-19T19:12:34.522Z,100.00
2022-12-19T19:17:36.474Z,100.00
2022-12-19T19:22:38.263Z,100.00
2022-12-19T19:27:40.702Z,100.00
2022-12-19T19:32:50.570Z,100.00
2022-12-19T19:37:54.777Z,100.00
2022-12-19T19:42:56.491Z,100.00
2022-12-19T19:48:03.072Z,100.00
2022-12-19T19:53:04.835Z,100.00
2022-12-19T19:58:06.937Z,100.00
2022-12-19T20:03:10.030Z,100.00
2022-12-19T20:08:13.927Z,100.00
2022-12-19T20:13:15.603Z,100.00
2022-12-19T20:18:18.081Z,100.00
2022-12-19T20:23:19.781Z,100.00
2022-12-19T20:28:21.455Z,100.00
2022-12-19T20:33:23.605Z,100.00
2022-12-19T20:38:25.428Z,100.00
2022-12-19T20:43:27.245Z,100.00
2022-12-19T20:48:28.941Z,100.00
2022-12-19T20:53:31.854Z,100.00
2022-12-19T20:58:36.383Z,100.00
2022-12-19T21:03:39.524Z,100.00
2022-12-19T21:08:42.101Z,100.00
2022-12-19T21:13:44.173Z,100.00
2022-12-19T21:18:47.516Z,99.22
2022-12-19T21:23:50.185Z,98.73
2022-12-19T21:28:53.216Z,97.55
2022-12-19T21:34:00.337Z,100.00
2022-12-19T21:39:02.580Z,100.00
2022-12-19T21:44:04.587Z,100.00
2022-12-19T21:49:06.647Z,100.00
2022-12-19T21:54:09.628Z,100.00
2022-12-19T21:59:14.474Z,100.00
2022-12-19T22:04:22.100Z,100.00
2022-12-19T22:09:23.934Z,100.00
2022-12-19T22:14:26.024Z,100.00
2022-12-19T22:19:27.711Z,100.00
2022-12-19T22:24:29.604Z,100.00
2022-12-19T22:29:36.431Z,100.00
2022-12-19T22:34:38.351Z,100.00
2022-12-19T22:39:40.047Z,100.00
2022-12-19T22:44:41.709Z,100.00
2022-12-19T22:49:43.383Z,100.00
2022-12-19T22:54:45.087Z,100.00
2022-12-19T22:59:46.754Z,100.00
2022-12-19T23:04:48.445Z,100.00
2022-12-19T23:09:50.166Z,100.00
2022-12-19T23:14:51.860Z,100.00
2022-12-19T23:19:53.563Z,100.00
2022-12-19T23:24:55.265Z,100.00
2022-12-19T23:29:56.978Z,100.00
2022-12-19T23:34:58.667Z,100.00
2022-12-19T23:40:00.408Z,100.00
2022-12-19T23:45:02.150Z,100.00
2022-12-19T23:50:04.453Z,100.00
2022-12-19T23:55:06.788Z,100.00
